Time;durP1;ratioP1;P1;durP2;ratioP2;P2;SDS_P1;SDS_P2;PMS_P1;PMS_P2;Temp;Humidity;BMP_temperature;BMP_pressure;BME280_temperature;BME280_humidity;BME280_pressure;Samples;Min_cycle;Max_cycle;Signal;HPM_P1;HPM_P2
2022/07/07 00:00:44;;;;;;;6.93;3.37;;;;;;;;;;5113572;28;20443;-76
2022/07/07 00:03:11;;;;;;;4.03;3.33;;;;;;;;;;5114445;28;20439;-76
2022/07/07 00:05:39;;;;;;;4.03;3.23;;;;;;;;;;5114803;28;20429;-76
2022/07/07 00:08:07;;;;;;;4.30;3.90;;;;;;;;;;5115231;28;20545;-76
2022/07/07 00:10:35;;;;;;;6.00;3.17;;;;;;;;;;5116529;28;20784;-76
2022/07/07 00:13:03;;;;;;;4.00;3.70;;;;;;;;;;5117801;27;20486;-76
2022/07/07 00:15:30;;;;;;;4.17;3.03;;;;;;;;;;5119852;27;20540;-76
2022/07/07 00:17:57;;;;;;;5.10;3.20;;;;;;;;;;5117057;27;20438;-76
2022/07/07 00:20:24;;;;;;;5.60;3.87;;;;;;;;;;5113747;28;20947;-77
2022/07/07 00:22:52;;;;;;;4.10;2.83;;;;;;;;;;5113332;28;20823;-77
2022/07/07 00:25:19;;;;;;;5.40;3.50;;;;;;;;;;5113814;28;20533;-77
2022/07/07 00:27:48;;;;;;;4.40;3.20;;;;;;;;;;5114313;28;20954;-77
2022/07/07 00:30:15;;;;;;;6.73;3.53;;;;;;;;;;5114727;28;20781;-77
2022/07/07 00:32:42;;;;;;;3.60;3.30;;;;;;;;;;5115897;28;20993;-77
2022/07/07 00:35:10;;;;;;;4.50;3.23;;;;;;;;;;5116275;27;20870;-76
2022/07/07 00:37:37;;;;;;;6.50;4.00;;;;;;;;;;5119303;27;20445;-76
2022/07/07 00:40:05;;;;;;;3.30;2.90;;;;;;;;;;5116011;27;21072;-77
2022/07/07 00:42:32;;;;;;;4.67;3.30;;;;;;;;;;5113328;28;20420;-76
2022/07/07 00:45:00;;;;;;;4.67;3.63;;;;;;;;;;5112669;28;20817;-77
2022/07/07 00:47:28;;;;;;;5.33;3.37;;;;;;;;;;5113597;28;20958;-77
2022/07/07 00:49:56;;;;;;;3.70;3.10;;;;;;;;;;5114214;28;20934;-77
2022/07/07 00:52:23;;;;;;;4.20;3.37;;;;;;;;;;5114542;28;20564;-76
2022/07/07 00:54:52;;;;;;;4.30;3.33;;;;;;;;;;5115389;28;20857;-76
2022/07/07 00:57:19;;;;;;;3.50;3.20;;;;;;;;;;5117077;27;20434;-76
2022/07/07 00:59:46;;;;;;;5.50;3.83;;;;;;;;;;5119246;27;20459;-77
2022/07/07 01:02:15;;;;;;;5.90;4.17;;;;;;;;;;5126567;27;20437;-77
2022/07/07 01:04:43;;;;;;;3.73;3.33;;;;;;;;;;5133643;27;20775;-77
2022/07/07 01:07:10;;;;;;;4.57;3.47;;;;;;;;;;5132924;27;20451;-76
2022/07/07 01:09:39;;;;;;;4.60;3.63;;;;;;;;;;5133464;27;20444;-76
2022/07/07 01:12:06;;;;;;;4.17;3.77;;;;;;;;;;5134067;27;20452;-76
2022/07/07 01:14:33;;;;;;;8.20;3.50;;;;;;;;;;5118326;27;20445;-76
2022/07/07 01:17:00;;;;;;;4.63;3.13;;;;;;;;;;5115412;28;20935;-76
2022/07/07 01:19:29;;;;;;;8.53;3.93;;;;;;;;;;5116787;27;20442;-76
2022/07/07 01:21:58;;;;;;;3.97;3.30;;;;;;;;;;5118589;27;20779;-76
2022/07/07 01:24:28;;;;;;;4.90;3.60;;;;;;;;;;5113534;27;20791;-76
2022/07/07 01:27:05;;;;;;;4.70;3.60;;;;;;;;;;5112747;28;20426;-77
2022/07/07 01:29:35;;;;;;;6.50;3.67;;;;;;;;;;5112076;28;20433;-77
2022/07/07 01:32:03;;;;;;;3.87;3.50;;;;;;;;;;5111590;28;20443;-76
2022/07/07 01:34:30;;;;;;;7.30;3.67;;;;;;;;;;5112628;28;20434;-76
2022/07/07 01:36:57;;;;;;;5.07;3.63;;;;;;;;;;5113854;28;20549;-76
2022/07/07 01:39:24;;;;;;;6.73;4.20;;;;;;;;;;5114436;28;20560;-77
2022/07/07 01:41:53;;;;;;;6.60;3.80;;;;;;;;;;5117048;27;21283;-76
2022/07/07 01:44:20;;;;;;;7.57;3.30;;;;;;;;;;5118249;27;20430;-76
2022/07/07 01:46:47;;;;;;;4.30;3.40;;;;;;;;;;5113264;27;20988;-76
2022/07/07 01:49:14;;;;;;;5.67;3.47;;;;;;;;;;5111992;28;20501;-76
2022/07/07 01:51:42;;;;;;;3.87;3.57;;;;;;;;;;5111653;28;20452;-76
2022/07/07 01:54:10;;;;;;;6.50;3.17;;;;;;;;;;5112476;28;20486;-77
2022/07/07 01:56:37;;;;;;;5.90;3.57;;;;;;;;;;5112356;28;20462;-76
2022/07/07 01:59:06;;;;;;;3.67;3.10;;;;;;;;;;5113714;28;20533;-76
2022/07/07 02:01:34;;;;;;;5.63;2.90;;;;;;;;;;5115560;28;20446;-76
2022/07/07 02:04:01;;;;;;;3.80;2.83;;;;;;;;;;5117746;27;20788;-76
2022/07/07 02:06:28;;;;;;;5.40;3.20;;;;;;;;;;5118126;27;20428;-76
2022/07/07 02:08:55;;;;;;;3.77;2.97;;;;;;;;;;5113111;27;20405;-76
2022/07/07 02:11:22;;;;;;;4.00;3.03;;;;;;;;;;5111708;28;20918;-77
2022/07/07 02:13:50;;;;;;;6.23;3.27;;;;;;;;;;5111333;28;20539;-76
2022/07/07 02:16:19;;;;;;;3.17;2.87;;;;;;;;;;5110916;28;20462;-76
2022/07/07 02:18:48;;;;;;;4.80;3.60;;;;;;;;;;5112571;28;20935;-76
2022/07/07 02:21:15;;;;;;;4.93;3.47;;;;;;;;;;5114622;28;20458;-76
2022/07/07 02:23:43;;;;;;;5.23;3.63;;;;;;;;;;5113085;28;20441;-76
2022/07/07 02:26:11;;;;;;;7.03;3.60;;;;;;;;;;5115323;28;20435;-77
2022/07/07 02:28:39;;;;;;;4.83;3.33;;;;;;;;;;5117960;27;20828;-76
2022/07/07 02:31:06;;;;;;;4.70;3.63;;;;;;;;;;5114229;27;20434;-76
2022/07/07 02:33:35;;;;;;;6.13;3.50;;;;;;;;;;5112189;28;20565;-76
2022/07/07 02:36:03;;;;;;;4.57;4.13;;;;;;;;;;5110161;28;20437;-76
2022/07/07 02:38:30;;;;;;;4.73;4.27;;;;;;;;;;5112045;28;20805;-76
2022/07/07 02:40:57;;;;;;;4.07;3.67;;;;;;;;;;5111735;28;20973;-76
2022/07/07 02:43:25;;;;;;;6.93;4.13;;;;;;;;;;5093095;28;20443;-77
2022/07/07 02:45:52;;;;;;;7.80;3.70;;;;;;;;;;5093430;28;20442;-76
2022/07/07 02:48:20;;;;;;;4.80;3.83;;;;;;;;;;5111046;28;20432;-76
2022/07/07 02:50:49;;;;;;;7.47;4.60;;;;;;;;;;5117580;28;20994;-76
2022/07/07 02:53:17;;;;;;;5.20;3.83;;;;;;;;;;5128840;27;20476;-76
2022/07/07 02:55:45;;;;;;;4.97;4.13;;;;;;;;;;5131330;27;20469;-76
2022/07/07 02:58:15;;;;;;;6.87;4.43;;;;;;;;;;5132774;27;20949;-76
2022/07/07 03:00:42;;;;;;;6.60;4.57;;;;;;;;;;5136935;27;20786;-76
2022/07/07 03:03:09;;;;;;;5.67;4.27;;;;;;;;;;5134842;27;20447;-76
2022/07/07 03:05:36;;;;;;;5.90;4.90;;;;;;;;;;5117734;28;20492;-76
2022/07/07 03:08:05;;;;;;;6.97;4.00;;;;;;;;;;5117554;28;20437;-76
2022/07/07 03:10:33;;;;;;;7.00;4.60;;;;;;;;;;5120503;27;20494;-76
2022/07/07 03:13:00;;;;;;;4.90;3.87;;;;;;;;;;5121722;27;20448;-77
2022/07/07 03:15:27;;;;;;;6.83;4.20;;;;;;;;;;5132963;27;20459;-76
2022/07/07 03:17:55;;;;;;;5.80;4.10;;;;;;;;;;5135075;27;20440;-76
2022/07/07 03:20:23;;;;;;;5.40;4.23;;;;;;;;;;5135819;27;20490;-76
2022/07/07 03:22:50;;;;;;;5.40;3.80;;;;;;;;;;5134901;27;20425;-76
2022/07/07 03:25:19;;;;;;;6.73;4.40;;;;;;;;;;5133651;27;20446;-75
2022/07/07 03:27:46;;;;;;;5.00;4.37;;;;;;;;;;5117246;28;20451;-75
2022/07/07 03:30:13;;;;;;;4.67;3.80;;;;;;;;;;5117267;28;20445;-75
2022/07/07 03:32:41;;;;;;;4.77;3.67;;;;;;;;;;5120013;27;20439;-75
2022/07/07 03:35:09;;;;;;;4.67;4.07;;;;;;;;;;5120534;27;20459;-75
2022/07/07 03:37:36;;;;;;;3.90;3.53;;;;;;;;;;5133257;27;20756;-75
2022/07/07 03:40:04;;;;;;;7.10;4.80;;;;;;;;;;5134266;27;20472;-75
2022/07/07 03:42:32;;;;;;;6.40;4.20;;;;;;;;;;5134234;27;20510;-75
2022/07/07 03:44:59;;;;;;;4.30;3.70;;;;;;;;;;5135858;27;20463;-75
2022/07/07 03:47:27;;;;;;;4.43;3.50;;;;;;;;;;5132732;27;20420;-77
2022/07/07 03:49:54;;;;;;;3.77;3.37;;;;;;;;;;5116827;28;20442;-77
2022/07/07 03:52:21;;;;;;;4.57;4.17;;;;;;;;;;5116843;28;21032;-77
2022/07/07 03:54:48;;;;;;;7.27;4.70;;;;;;;;;;5119970;27;20465;-76
2022/07/07 03:57:15;;;;;;;4.20;3.20;;;;;;;;;;5120443;27;20433;-76
2022/07/07 03:59:44;;;;;;;4.50;3.57;;;;;;;;;;5114854;27;20476;-76
2022/07/07 04:02:11;;;;;;;4.73;3.33;;;;;;;;;;5113469;28;20953;-76
2022/07/07 04:04:39;;;;;;;3.83;3.13;;;;;;;;;;5114130;28;20442;-76
2022/07/07 04:07:06;;;;;;;4.37;3.20;;;;;;;;;;5114684;28;20931;-77
2022/07/07 04:09:33;;;;;;;3.13;2.83;;;;;;;;;;5113854;28;20822;-76
2022/07/07 04:12:00;;;;;;;7.10;3.13;;;;;;;;;;5116288;28;20473;-76
2022/07/07 04:14:28;;;;;;;4.67;3.07;;;;;;;;;;5116226;28;20568;-76
2022/07/07 04:16:57;;;;;;;4.40;3.10;;;;;;;;;;5119438;27;20833;-76
2022/07/07 04:19:24;;;;;;;21.47;3.77;;;;;;;;;;5120058;27;20888;-76
2022/07/07 04:21:51;;;;;;;4.53;3.20;;;;;;;;;;5113659;27;20412;-76
2022/07/07 04:24:18;;;;;;;4.90;3.37;;;;;;;;;;5113140;28;20512;-76
2022/07/07 04:26:46;;;;;;;6.30;3.57;;;;;;;;;;5114041;28;20446;-76
2022/07/07 04:29:13;;;;;;;4.50;3.20;;;;;;;;;;5114358;28;20441;-76
2022/07/07 04:31:44;;;;;;;4.70;3.50;;;;;;;;;;5113456;28;20447;-76
2022/07/07 04:34:13;;;;;;;6.00;3.43;;;;;;;;;;5116736;28;20485;-76
2022/07/07 04:36:40;;;;;;;4.20;2.83;;;;;;;;;;5115825;28;20450;-76
2022/07/07 04:39:08;;;;;;;4.77;3.23;;;;;;;;;;5119171;27;20809;-77
2022/07/07 04:41:35;;;;;;;4.10;3.70;;;;;;;;;;5119906;27;20943;-77
2022/07/07 04:44:03;;;;;;;2.80;2.60;;;;;;;;;;5133031;27;20446;-78
2022/07/07 04:46:30;;;;;;;4.07;3.20;;;;;;;;;;5133453;27;20572;-77
2022/07/07 04:48:57;;;;;;;4.43;3.23;;;;;;;;;;5134228;27;20445;-77
2022/07/07 04:51:26;;;;;;;4.93;3.20;;;;;;;;;;5134532;27;20444;-77
2022/07/07 04:53:53;;;;;;;5.37;3.50;;;;;;;;;;5129828;27;20492;-77
2022/07/07 04:56:20;;;;;;;5.03;2.63;;;;;;;;;;5115329;28;20545;-76
2022/07/07 04:58:47;;;;;;;3.60;2.90;;;;;;;;;;5115405;28;20536;-76
2022/07/07 05:01:14;;;;;;;3.30;3.00;;;;;;;;;;5119006;27;20433;-76
2022/07/07 05:03:42;;;;;;;5.03;3.23;;;;;;;;;;5119445;27;20407;-76
2022/07/07 05:06:10;;;;;;;4.80;2.73;;;;;;;;;;5132549;27;20563;-76
2022/07/07 05:08:39;;;;;;;3.60;3.17;;;;;;;;;;5132772;27;20439;-76
2022/07/07 05:11:07;;;;;;;3.97;2.80;;;;;;;;;;5133572;27;20437;-76
2022/07/07 05:13:34;;;;;;;6.63;2.80;;;;;;;;;;5132566;27;20948;-76
2022/07/07 05:16:02;;;;;;;3.30;2.70;;;;;;;;;;5129083;27;20474;-77
2022/07/07 05:18:30;;;;;;;4.83;2.70;;;;;;;;;;5115148;28;20545;-76
2022/07/07 05:20:58;;;;;;;5.33;3.40;;;;;;;;;;5114416;28;20414;-76
2022/07/07 05:23:26;;;;;;;4.70;2.90;;;;;;;;;;5118414;27;20411;-76
2022/07/07 05:25:55;;;;;;;5.03;3.20;;;;;;;;;;5118832;27;20460;-77
2022/07/07 05:28:22;;;;;;;5.87;3.37;;;;;;;;;;5132664;27;20459;-76
2022/07/07 05:30:50;;;;;;;3.53;2.77;;;;;;;;;;5131349;27;20451;-76
2022/07/07 05:33:17;;;;;;;3.97;3.13;;;;;;;;;;5133202;27;20799;-77
2022/07/07 05:35:44;;;;;;;6.13;2.60;;;;;;;;;;5133586;27;20868;-75
2022/07/07 05:38:11;;;;;;;6.70;2.67;;;;;;;;;;5127394;27;20471;-74
2022/07/07 05:40:39;;;;;;;4.97;3.00;;;;;;;;;;5114724;28;20438;-74
2022/07/07 05:43:08;;;;;;;4.93;3.10;;;;;;;;;;5114963;28;20834;-75
2022/07/07 05:45:35;;;;;;;3.50;2.50;;;;;;;;;;5118349;27;20499;-75
2022/07/07 05:48:02;;;;;;;3.97;2.60;;;;;;;;;;5117939;27;20435;-76
2022/07/07 05:50:30;;;;;;;3.93;2.87;;;;;;;;;;5131030;27;20442;-74
2022/07/07 05:52:57;;;;;;;3.93;3.07;;;;;;;;;;5131942;27;20973;-75
2022/07/07 05:55:24;;;;;;;3.70;2.60;;;;;;;;;;5132868;27;20849;-74
2022/07/07 05:57:51;;;;;;;6.03;3.27;;;;;;;;;;5133421;27;20444;-74
2022/07/07 06:00:20;;;;;;;5.27;3.67;;;;;;;;;;5127213;27;20444;-74
2022/07/07 06:02:47;;;;;;;4.93;3.50;;;;;;;;;;5114103;28;20898;-77
2022/07/07 06:05:14;;;;;;;5.47;3.50;;;;;;;;;;5114186;28;20447;-83
2022/07/07 06:07:41;;;;;;;5.53;3.80;;;;;;;;;;5117669;27;20927;-74
2022/07/07 06:10:10;;;;;;;5.20;4.70;;;;;;;;;;5118375;27;20903;-77
2022/07/07 06:12:37;;;;;;;4.53;3.80;;;;;;;;;;5091144;28;20443;-79
2022/07/07 06:15:05;;;;;;;6.33;4.60;;;;;;;;;;5090739;28;20806;-81
2022/07/07 06:17:33;;;;;;;10.10;6.00;;;;;;;;;;5092041;28;20513;-85
2022/07/07 06:20:01;;;;;;;7.60;5.20;;;;;;;;;;5091287;28;20586;-86
2022/07/07 06:22:28;;;;;;;5.90;5.30;;;;;;;;;;5092304;28;20783;-77
2022/07/07 06:24:56;;;;;;;6.93;4.90;;;;;;;;;;5093980;28;20442;-81
2022/07/07 06:27:23;;;;;;;5.50;4.93;;;;;;;;;;5093707;28;20499;-76
2022/07/07 06:29:50;;;;;;;7.17;5.73;;;;;;;;;;5115337;28;20460;-78
2022/07/07 06:32:18;;;;;;;6.57;4.90;;;;;;;;;;5117784;28;20468;-80
2022/07/07 06:34:46;;;;;;;7.67;4.77;;;;;;;;;;5134673;27;20462;-80
2022/07/07 06:37:13;;;;;;;5.90;5.33;;;;;;;;;;5136291;27;20438;-80
2022/07/07 06:39:41;;;;;;;6.23;5.63;;;;;;;;;;5136784;27;20471;-84
2022/07/07 06:42:08;;;;;;;7.40;5.97;;;;;;;;;;5137125;27;20440;-78
2022/07/07 06:44:35;;;;;;;6.07;5.47;;;;;;;;;;5132589;27;20456;-78
2022/07/07 06:47:02;;;;;;;6.77;5.87;;;;;;;;;;5117957;28;20534;-79
2022/07/07 06:49:30;;;;;;;5.50;4.90;;;;;;;;;;5118219;28;20498;-76
2022/07/07 06:51:58;;;;;;;6.00;5.40;;;;;;;;;;5121167;27;20504;-79
2022/07/07 06:54:26;;;;;;;8.27;5.67;;;;;;;;;;5121868;27;20442;-78
2022/07/07 06:56:53;;;;;;;6.30;5.33;;;;;;;;;;5134109;27;20987;-78
2022/07/07 06:59:21;;;;;;;6.73;6.03;;;;;;;;;;5135432;27;20444;-78
2022/07/07 07:01:49;;;;;;;5.73;5.33;;;;;;;;;;5136099;27;20413;-79
2022/07/07 07:04:17;;;;;;;6.73;6.13;;;;;;;;;;5136974;27;20493;-77
2022/07/07 07:06:44;;;;;;;6.57;5.97;;;;;;;;;;5131130;27;20475;-79
2022/07/07 07:09:13;;;;;;;7.90;7.10;;;;;;;;;;5117647;28;20419;-77
2022/07/07 07:11:40;;;;;;;8.23;7.27;;;;;;;;;;5117742;28;20496;-78
2022/07/07 07:14:07;;;;;;;8.13;7.33;;;;;;;;;;5120044;27;21035;-78
2022/07/07 07:16:34;;;;;;;10.93;8.70;;;;;;;;;;5121522;27;20456;-77
2022/07/07 07:19:01;;;;;;;9.80;8.20;;;;;;;;;;5132404;27;20942;-78
2022/07/07 07:21:29;;;;;;;8.27;7.43;;;;;;;;;;5135673;27;20449;-76
2022/07/07 07:23:56;;;;;;;8.50;7.07;;;;;;;;;;5135098;27;20445;-77
2022/07/07 07:26:25;;;;;;;5.80;5.20;;;;;;;;;;5136188;27;20435;-77
2022/07/07 07:28:53;;;;;;;7.00;6.20;;;;;;;;;;5133713;27;20415;-79
2022/07/07 07:31:20;;;;;;;6.50;5.90;;;;;;;;;;5117297;28;20437;-77
2022/07/07 07:33:48;;;;;;;8.70;6.80;;;;;;;;;;5116545;28;20448;-76
2022/07/07 07:36:15;;;;;;;5.63;5.13;;;;;;;;;;5119352;27;20958;-78
2022/07/07 07:38:44;;;;;;;3.53;3.20;;;;;;;;;;5120827;27;20956;-79
2022/07/07 07:41:12;;;;;;;4.30;3.83;;;;;;;;;;5115465;27;20747;-78
2022/07/07 07:43:41;;;;;;;4.57;3.37;;;;;;;;;;5114199;28;20620;-76
2022/07/07 07:46:08;;;;;;;3.80;3.30;;;;;;;;;;5114239;28;20553;-81
2022/07/07 07:48:36;;;;;;;3.20;2.90;;;;;;;;;;5115292;28;20442;-81
2022/07/07 07:51:03;;;;;;;3.10;2.60;;;;;;;;;;5114280;28;20444;-80
2022/07/07 07:53:30;;;;;;;3.93;2.60;;;;;;;;;;5115828;28;20430;-79
2022/07/07 07:55:58;;;;;;;2.37;2.17;;;;;;;;;;5116514;28;20487;-78
2022/07/07 07:58:25;;;;;;;2.93;2.30;;;;;;;;;;5119484;27;20794;-80
2022/07/07 08:00:53;;;;;;;3.20;2.70;;;;;;;;;;5120483;27;20398;-80
2022/07/07 08:03:21;;;;;;;2.67;2.37;;;;;;;;;;5130153;27;20418;-77
2022/07/07 08:05:48;;;;;;;3.33;2.70;;;;;;;;;;5134789;27;20829;-80
2022/07/07 08:08:15;;;;;;;2.93;1.90;;;;;;;;;;5134275;27;20431;-79
2022/07/07 08:10:42;;;;;;;2.93;1.67;;;;;;;;;;5135525;27;20511;-77
2022/07/07 08:13:10;;;;;;;2.57;1.70;;;;;;;;;;5134932;27;20440;-79
2022/07/07 08:15:37;;;;;;;1.50;1.40;;;;;;;;;;5115846;28;20579;-81
2022/07/07 08:18:05;;;;;;;1.60;1.47;;;;;;;;;;5116455;28;20445;-81
2022/07/07 08:20:33;;;;;;;1.77;1.43;;;;;;;;;;5118387;27;20490;-79
2022/07/07 08:23:00;;;;;;;1.67;1.40;;;;;;;;;;5120046;27;20404;-82
2022/07/07 08:25:27;;;;;;;2.20;1.40;;;;;;;;;;5115990;27;20432;-78
2022/07/07 08:27:54;;;;;;;2.03;1.40;;;;;;;;;;5114054;28;20441;-80
2022/07/07 08:30:21;;;;;;;2.30;1.80;;;;;;;;;;5113193;28;20527;-78
2022/07/07 08:32:49;;;;;;;3.20;1.40;;;;;;;;;;5114203;28;20447;-78
2022/07/07 08:35:17;;;;;;;1.60;1.40;;;;;;;;;;5113912;28;20882;-80
2022/07/07 08:37:44;;;;;;;2.33;1.53;;;;;;;;;;5114977;28;20434;-77
2022/07/07 08:40:12;;;;;;;3.10;1.50;;;;;;;;;;5116115;28;20451;-78
2022/07/07 08:42:39;;;;;;;2.37;1.47;;;;;;;;;;5117904;27;21842;-80
2022/07/07 08:45:07;;;;;;;5.77;1.70;;;;;;;;;;5119465;27;20457;-78
2022/07/07 08:47:34;;;;;;;4.80;1.50;;;;;;;;;;5127617;27;20949;-79
2022/07/07 08:50:02;;;;;;;3.53;1.40;;;;;;;;;;5134326;27;20437;-77
2022/07/07 08:52:30;;;;;;;4.03;1.70;;;;;;;;;;5133276;27;21013;-76
2022/07/07 08:54:58;;;;;;;3.50;1.63;;;;;;;;;;5134124;27;20489;-77
2022/07/07 08:57:25;;;;;;;4.10;1.53;;;;;;;;;;5133737;27;20801;-81
2022/07/07 08:59:56;;;;;;;4.00;2.13;;;;;;;;;;5116900;27;20458;-77
2022/07/07 09:02:23;;;;;;;2.83;1.60;;;;;;;;;;5115565;28;20445;-76
2022/07/07 09:04:51;;;;;;;5.30;1.90;;;;;;;;;;5117650;27;20861;-75
2022/07/07 09:07:19;;;;;;;3.73;1.70;;;;;;;;;;5118243;27;20425;-77
2022/07/07 09:09:49;;;;;;;3.13;1.60;;;;;;;;;;5115378;27;20454;-75
2022/07/07 09:12:17;;;;;;;5.93;2.00;;;;;;;;;;5112880;28;20939;-76
2022/07/07 09:14:45;;;;;;;5.90;2.53;;;;;;;;;;5112173;28;20443;-77
2022/07/07 09:17:16;;;;;;;4.53;2.37;;;;;;;;;;5113192;28;20538;-76
2022/07/07 09:19:44;;;;;;;7.30;2.47;;;;;;;;;;5113143;28;20449;-77
2022/07/07 09:22:12;;;;;;;3.57;2.23;;;;;;;;;;5114341;28;20443;-77
2022/07/07 09:24:54;;;;;;;3.20;2.43;;;;;;;;;;5115004;28;20441;-75
2022/07/07 09:27:23;;;;;;;3.63;2.37;;;;;;;;;;5116301;27;20469;-76
2022/07/07 09:29:50;;;;;;;9.93;3.77;;;;;;;;;;5118606;27;20438;-76
2022/07/07 09:32:17;;;;;;;6.10;2.70;;;;;;;;;;5127987;27;20445;-77
2022/07/07 09:34:44;;;;;;;4.50;2.57;;;;;;;;;;5132947;27;20823;-78
2022/07/07 09:39:54;;;;;;;2.47;2.27;;;;;;;;;;5133076;27;20970;-77
2022/07/07 09:42:25;;;;;;;4.30;1.70;;;;;;;;;;5131072;27;20461;-77
2022/07/07 09:44:53;;;;;;;3.60;2.33;;;;;;;;;;5116748;27;21224;-75
2022/07/07 09:47:21;;;;;;;3.97;1.80;;;;;;;;;;5117403;27;21012;-76
2022/07/07 09:49:59;;;;;;;2.50;1.60;;;;;;;;;;5127971;27;20523;-78
2022/07/07 09:52:26;;;;;;;1.40;1.30;;;;;;;;;;5132589;27;20645;-77
2022/07/07 09:54:53;;;;;;;6.83;2.40;;;;;;;;;;5132006;27;20465;-76
2022/07/07 09:57:21;;;;;;;5.90;1.93;;;;;;;;;;5133530;27;20494;-76
2022/07/07 09:59:50;;;;;;;7.23;1.90;;;;;;;;;;5131575;27;20795;-76
2022/07/07 10:02:20;;;;;;;4.33;1.90;;;;;;;;;;5113310;28;20931;-75
2022/07/07 10:04:48;;;;;;;2.00;1.30;;;;;;;;;;5114284;28;20452;-76
2022/07/07 10:07:18;;;;;;;2.80;1.70;;;;;;;;;;5116749;27;20438;-76
2022/07/07 10:09:46;;;;;;;3.97;1.70;;;;;;;;;;5118171;27;20434;-79
2022/07/07 10:12:15;;;;;;;8.43;2.40;;;;;;;;;;5113881;27;20420;-76
2022/07/07 10:14:43;;;;;;;2.10;1.57;;;;;;;;;;5111944;28;20968;-82
2022/07/07 10:17:16;;;;;;;1.57;1.17;;;;;;;;;;5110216;28;20435;-77
2022/07/07 10:19:43;;;;;;;3.93;1.20;;;;;;;;;;5111299;28;20530;-80
2022/07/07 10:22:12;;;;;;;2.80;1.07;;;;;;;;;;5111682;28;20438;-78
2022/07/07 10:24:40;;;;;;;2.73;1.47;;;;;;;;;;5114073;28;20457;-78
2022/07/07 10:27:08;;;;;;;1.60;1.20;;;;;;;;;;5114488;28;20439;-77
2022/07/07 10:29:38;;;;;;;2.63;1.50;;;;;;;;;;5116121;28;20437;-77
2022/07/07 10:32:06;;;;;;;2.00;1.30;;;;;;;;;;5117695;28;20503;-77
2022/07/07 10:34:34;;;;;;;6.33;1.70;;;;;;;;;;5127333;28;20429;-77
2022/07/07 10:37:03;;;;;;;2.40;1.50;;;;;;;;;;5132325;27;20485;-77
2022/07/07 10:39:33;;;;;;;2.30;1.47;;;;;;;;;;5131748;27;20564;-80
2022/07/07 10:42:04;;;;;;;3.10;1.37;;;;;;;;;;5132914;27;20442;-76
2022/07/07 10:44:32;;;;;;;2.47;1.30;;;;;;;;;;5131488;27;20442;-80
2022/07/07 10:46:59;;;;;;;2.20;1.20;;;;;;;;;;5114008;28;20990;-77
2022/07/07 10:49:39;;;;;;;2.30;1.43;;;;;;;;;;5114043;28;20533;-77
2022/07/07 10:52:11;;;;;;;3.20;1.57;;;;;;;;;;5116261;28;20430;-84
2022/07/07 10:54:39;;;;;;;2.30;1.37;;;;;;;;;;5117595;28;20429;-81
2022/07/07 10:57:15;;;;;;;3.43;1.80;;;;;;;;;;5112711;27;20474;-78
2022/07/07 10:59:58;;;;;;;2.90;1.30;;;;;;;;;;5111424;28;20438;-80
2022/07/07 11:02:30;;;;;;;3.20;1.57;;;;;;;;;;5108869;28;20529;-78
2022/07/07 11:04:58;;;;;;;4.00;1.83;;;;;;;;;;5105073;28;20450;-76
2022/07/07 11:07:26;;;;;;;2.57;1.20;;;;;;;;;;5111258;28;20453;-77
2022/07/07 11:09:58;;;;;;;3.03;1.50;;;;;;;;;;5113840;28;20426;-77
2022/07/07 11:12:40;;;;;;;2.60;1.20;;;;;;;;;;5113721;28;20495;-78
2022/07/07 11:15:22;;;;;;;2.80;1.30;;;;;;;;;;5115741;27;20445;-76
2022/07/07 11:17:50;;;;;;;2.40;1.57;;;;;;;;;;5117975;28;20429;-78
2022/07/07 11:20:20;;;;;;;2.37;1.40;;;;;;;;;;5134162;27;20436;-75
2022/07/07 11:22:48;;;;;;;3.50;1.87;;;;;;;;;;5135203;27;20455;-77
2022/07/07 11:25:17;;;;;;;1.73;1.20;;;;;;;;;;5135875;27;20468;-77
2022/07/07 11:27:44;;;;;;;2.40;1.50;;;;;;;;;;5136091;27;20926;-78
2022/07/07 11:30:11;;;;;;;4.10;1.73;;;;;;;;;;5127938;27;20551;-76
2022/07/07 11:32:39;;;;;;;4.57;2.00;;;;;;;;;;5117296;28;21021;-76
2022/07/07 11:35:07;;;;;;;5.13;1.60;;;;;;;;;;5117501;28;20462;-76
2022/07/07 11:37:37;;;;;;;2.57;1.67;;;;;;;;;;5120686;27;20816;-76
2022/07/07 11:40:05;;;;;;;4.30;2.00;;;;;;;;;;5119156;27;20510;-76
2022/07/07 11:42:35;;;;;;;7.13;2.20;;;;;;;;;;5133705;27;20446;-75
2022/07/07 11:45:03;;;;;;;3.70;1.73;;;;;;;;;;5134436;27;20453;-75
2022/07/07 11:47:33;;;;;;;2.10;1.50;;;;;;;;;;5135385;27;20434;-76
2022/07/07 11:50:00;;;;;;;4.50;1.50;;;;;;;;;;5135818;27;20440;-76
2022/07/07 11:52:28;;;;;;;3.10;1.47;;;;;;;;;;5128670;27;20549;-75
2022/07/07 11:54:56;;;;;;;2.17;1.50;;;;;;;;;;5116821;28;20490;-76
2022/07/07 11:57:27;;;;;;;2.57;1.50;;;;;;;;;;5116637;28;20485;-75
2022/07/07 11:59:55;;;;;;;3.53;1.70;;;;;;;;;;5120406;27;20521;-76
2022/07/07 12:02:22;;;;;;;2.27;1.90;;;;;;;;;;5121125;27;20448;-76
2022/07/07 12:04:53;;;;;;;5.00;1.90;;;;;;;;;;5113900;28;20442;-76
2022/07/07 12:07:20;;;;;;;2.03;1.50;;;;;;;;;;5113634;28;20442;-75
2022/07/07 12:09:48;;;;;;;2.27;1.43;;;;;;;;;;5114182;28;20533;-76
2022/07/07 12:12:20;;;;;;;3.17;1.70;;;;;;;;;;5114650;28;20521;-76
2022/07/07 12:14:47;;;;;;;2.70;1.77;;;;;;;;;;5109808;28;20440;-75
2022/07/07 12:17:14;;;;;;;6.37;1.70;;;;;;;;;;5096032;28;20487;-75
2022/07/07 12:19:47;;;;;;;2.90;1.43;;;;;;;;;;5095990;28;20439;-75
2022/07/07 12:22:14;;;;;;;1.27;1.03;;;;;;;;;;5116515;27;20755;-74
2022/07/07 12:24:41;;;;;;;2.30;1.60;;;;;;;;;;5119939;27;20436;-75
2022/07/07 12:27:17;;;;;;;4.90;1.90;;;;;;;;;;5114074;27;20426;-75
2022/07/07 12:32:46;;;;;;;1.97;1.40;;;;;;;;;;5108980;27;20573;-76
2022/07/07 12:35:26;;;;;;;2.50;1.80;;;;;;;;;;5109445;28;20459;-76
2022/07/07 12:37:53;;;;;;;2.93;1.53;;;;;;;;;;5109022;28;20807;-75
2022/07/07 12:40:22;;;;;;;3.87;1.93;;;;;;;;;;5104867;28;20426;-76
2022/07/07 12:42:50;;;;;;;5.43;2.10;;;;;;;;;;5106092;28;20466;-76
2022/07/07 12:45:19;;;;;;;2.00;1.50;;;;;;;;;;5108321;28;20554;-76
2022/07/07 12:47:48;;;;;;;3.10;1.57;;;;;;;;;;5107171;28;20451;-75
2022/07/07 12:50:16;;;;;;;6.27;2.30;;;;;;;;;;5109099;28;20439;-77
2022/07/07 12:52:54;;;;;;;3.10;2.00;;;;;;;;;;5108347;28;20533;-76
2022/07/07 12:55:21;;;;;;;3.37;1.80;;;;;;;;;;5109454;28;20577;-76
2022/07/07 12:57:48;;;;;;;4.73;1.80;;;;;;;;;;5111184;28;20509;-76
2022/07/07 13:00:24;;;;;;;2.50;1.53;;;;;;;;;;5110576;28;20449;-76
2022/07/07 13:02:53;;;;;;;5.57;2.47;;;;;;;;;;5104554;28;20923;-76
2022/07/07 13:05:20;;;;;;;3.03;2.40;;;;;;;;;;5115991;28;20453;-75
2022/07/07 13:07:47;;;;;;;2.47;1.73;;;;;;;;;;5124978;28;20466;-75
2022/07/07 13:10:14;;;;;;;5.13;2.13;;;;;;;;;;5115710;28;20435;-76
2022/07/07 13:12:44;;;;;;;4.37;2.00;;;;;;;;;;5109426;28;20539;-76
2022/07/07 13:15:12;;;;;;;5.13;1.97;;;;;;;;;;5109039;28;20866;-75
2022/07/07 13:17:40;;;;;;;1.87;1.73;;;;;;;;;;5109155;28;20800;-77
2022/07/07 13:20:09;;;;;;;3.10;1.80;;;;;;;;;;5110799;28;20438;-75
2022/07/07 13:22:36;;;;;;;2.70;1.33;;;;;;;;;;5110619;28;21056;-77
2022/07/07 13:25:03;;;;;;;4.50;1.70;;;;;;;;;;5104584;28;20795;-75
2022/07/07 13:27:31;;;;;;;3.00;1.70;;;;;;;;;;5104333;28;20463;-76
2022/07/07 13:29:58;;;;;;;3.37;1.40;;;;;;;;;;5087519;28;20440;-76
2022/07/07 13:32:25;;;;;;;5.13;1.90;;;;;;;;;;5085554;28;20544;-75
2022/07/07 13:34:52;;;;;;;2.27;1.20;;;;;;;;;;5087757;28;20467;-76
2022/07/07 13:37:21;;;;;;;3.13;1.43;;;;;;;;;;5088577;28;20445;-75
2022/07/07 13:39:48;;;;;;;1.53;1.10;;;;;;;;;;5093484;28;20499;-75
2022/07/07 13:42:16;;;;;;;2.40;1.37;;;;;;;;;;5106460;28;20797;-78
2022/07/07 13:44:43;;;;;;;3.90;1.20;;;;;;;;;;5096734;28;20446;-75
2022/07/07 13:47:11;;;;;;;3.33;1.63;;;;;;;;;;5091783;28;20432;-76
2022/07/07 13:49:39;;;;;;;4.67;1.47;;;;;;;;;;5090173;28;20501;-75
2022/07/07 13:52:06;;;;;;;4.57;2.80;;;;;;;;;;5092890;28;20486;-76
2022/07/07 13:54:35;;;;;;;2.43;1.77;;;;;;;;;;5093761;28;20473;-78
2022/07/07 13:57:02;;;;;;;4.10;2.37;;;;;;;;;;5094298;28;20870;-78
2022/07/07 13:59:30;;;;;;;3.63;2.30;;;;;;;;;;5094818;28;20538;-76
2022/07/07 14:01:57;;;;;;;2.90;2.13;;;;;;;;;;5093799;28;20459;-77
2022/07/07 14:04:24;;;;;;;2.40;1.97;;;;;;;;;;5096145;28;20440;-81
2022/07/07 14:06:52;;;;;;;2.47;1.83;;;;;;;;;;5096347;28;20463;-86
2022/07/07 14:09:20;;;;;;;1.90;1.50;;;;;;;;;;5091454;28;20439;-77
2022/07/07 14:11:48;;;;;;;2.73;1.87;;;;;;;;;;5089892;28;20460;-76
2022/07/07 14:14:15;;;;;;;1.77;1.47;;;;;;;;;;5092848;28;20440;-80
2022/07/07 14:16:42;;;;;;;4.93;1.67;;;;;;;;;;5093205;28;20455;-76
2022/07/07 14:19:10;;;;;;;2.43;1.77;;;;;;;;;;5093496;28;20444;-77
2022/07/07 14:21:38;;;;;;;2.63;2.03;;;;;;;;;;5094570;28;20534;-76
2022/07/07 14:24:05;;;;;;;2.10;1.70;;;;;;;;;;5093457;28;20435;-76
2022/07/07 14:26:32;;;;;;;2.00;1.60;;;;;;;;;;5096007;28;20455;-77
2022/07/07 14:29:01;;;;;;;2.10;1.30;;;;;;;;;;5095925;28;20924;-79
2022/07/07 14:31:33;;;;;;;4.30;1.50;;;;;;;;;;5088071;28;20478;-79
2022/07/07 14:34:00;;;;;;;2.60;1.60;;;;;;;;;;5087441;28;20445;-75
2022/07/07 14:36:27;;;;;;;4.67;1.87;;;;;;;;;;5086779;28;20502;-76
2022/07/07 14:38:54;;;;;;;2.50;1.80;;;;;;;;;;5071520;28;20515;-76
2022/07/07 14:41:22;;;;;;;2.13;1.70;;;;;;;;;;5073091;28;20453;-76
2022/07/07 14:43:49;;;;;;;3.00;2.00;;;;;;;;;;5073512;28;20539;-76
2022/07/07 14:46:17;;;;;;;2.33;1.80;;;;;;;;;;5070545;28;20482;-76
2022/07/07 14:48:45;;;;;;;4.47;1.90;;;;;;;;;;5085790;28;20825;-77
2022/07/07 14:51:12;;;;;;;2.57;1.67;;;;;;;;;;5087741;28;20498;-76
2022/07/07 14:53:39;;;;;;;4.07;1.80;;;;;;;;;;5091879;28;20466;-74